Dahlgren, Virginia
Current Conditions -  °F | °C
As of 2:56 AM on Friday 31 Oct 2014 (Local Time) from KNYG Reporting Station
Clear Clear  
Wind Chill: 36°   Ceiling: Unl
Heat Index: 41°   Visibility: 10mi
Dew Point: 36°   Wind: 8mph
Humidity: 82%   Direction: 310°NW
Pressure: 30.03"   Gusts: NA
Location:  38.33°N, 77.05°W
Report Text: KNYG 310656Z AUTO 31007KT 10SM CLR 05/02 A3003 RMK AO2 SLP171 T00500022 $
Loading
Personal Weather Stations






























Interactive Weather Map New forecast layout! Learn more

10-Day Weather Forecast

Advertisements
Track Severe Weather on mobile